Time;durP1;ratioP1;P1;durP2;ratioP2;P2;SDS_P1;SDS_P2;PMS_P1;PMS_P2;Temp;Humidity;BMP_temperature;BMP_pressure;BME280_temperature;BME280_humidity;BME280_pressure;Samples;Min_cycle;Max_cycle;Signal;HPM_P1;HPM_P2
2021/06/05 00:01:09;;;;;;;0.17;0.17;;;;;;;;;;5068328;28;20086;-72
2021/06/05 00:03:35;;;;;;;0.10;0.10;;;;;;;;;;5069080;28;20057;-72
2021/06/05 00:06:02;;;;;;;0.35;0.30;;;;;;;;;;5071611;28;20090;-72
2021/06/05 00:08:29;;;;;;;0.20;0.20;;;;;;;;;;5072311;28;20040;-71
2021/06/05 00:10:58;;;;;;;0.20;0.20;;;;;;;;;;5071977;28;20513;-72
2021/06/05 00:13:25;;;;;;;0.10;0.10;;;;;;;;;;5072821;28;20051;-72
2021/06/05 00:15:51;;;;;;;0.20;0.20;;;;;;;;;;5072234;28;20067;-71
2021/06/05 00:18:18;;;;;;;0.10;0.10;;;;;;;;;;5072168;28;20056;-72
2021/06/05 00:20:44;;;;;;;0.10;0.10;;;;;;;;;;5072553;28;20060;-72
2021/06/05 00:23:12;;;;;;;0.10;0.10;;;;;;;;;;5071698;28;20044;-72
2021/06/05 00:25:38;;;;;;;0.10;0.10;;;;;;;;;;5072391;28;20519;-72
2021/06/05 00:28:05;;;;;;;0.10;0.10;;;;;;;;;;5071226;28;20060;-72
2021/06/05 00:30:31;;;;;;;0.10;0.10;;;;;;;;;;5072246;28;20048;-72
2021/06/05 00:32:57;;;;;;;0.63;0.10;;;;;;;;;;5071877;28;20048;-72
2021/06/05 00:35:24;;;;;;;0.20;0.15;;;;;;;;;;5072315;28;20522;-72
2021/06/05 00:37:50;;;;;;;0.47;0.15;;;;;;;;;;5071966;28;20079;-72
2021/06/05 00:40:17;;;;;;;0.20;0.20;;;;;;;;;;5072341;28;20032;-71
2021/06/05 00:42:43;;;;;;;0.10;0.10;;;;;;;;;;5072235;28;20135;-72
2021/06/05 00:45:11;;;;;;;0.47;0.20;;;;;;;;;;5071611;28;20060;-71
2021/06/05 00:47:38;;;;;;;0.17;0.17;;;;;;;;;;5072109;28;20127;-72
2021/06/05 00:50:05;;;;;;;0.13;0.13;;;;;;;;;;5071415;28;20482;-72
2021/06/05 00:52:31;;;;;;;0.38;0.10;;;;;;;;;;5071800;28;20079;-72
2021/06/05 00:54:57;;;;;;;0.20;0.20;;;;;;;;;;5071447;28;20056;-72
2021/06/05 00:57:24;;;;;;;0.40;0.30;;;;;;;;;;5071948;28;20047;-72
2021/06/05 00:59:50;;;;;;;0.32;0.25;;;;;;;;;;5071458;28;20105;-71
2021/06/05 01:02:16;;;;;;;0.17;0.10;;;;;;;;;;5071386;28;20494;-72
2021/06/05 01:04:42;;;;;;;0.20;0.20;;;;;;;;;;5071314;28;20057;-72
2021/06/05 01:07:20;;;;;;;0.10;0.10;;;;;;;;;;5070824;28;20072;-72
2021/06/05 01:10:00;;;;;;;0.05;0.05;;;;;;;;;;5071359;28;20048;-72
2021/06/05 01:12:47;;;;;;;0.10;0.10;;;;;;;;;;5071699;28;20056;-72
2021/06/05 01:15:17;;;;;;;0.20;0.20;;;;;;;;;;5055722;28;20176;-72
2021/06/05 01:17:45;;;;;;;0.20;0.20;;;;;;;;;;5070905;28;20094;-72
2021/06/05 01:20:17;;;;;;;0.10;0.10;;;;;;;;;;5070619;28;20063;-72
2021/06/05 01:22:53;;;;;;;0.30;0.22;;;;;;;;;;5071086;28;20045;-72
2021/06/05 01:25:25;;;;;;;0.10;0.10;;;;;;;;;;5071354;28;20127;-72
2021/06/05 01:28:01;;;;;;;0.10;0.10;;;;;;;;;;5070400;28;20056;-72
2021/06/05 01:30:29;;;;;;;0.20;0.20;;;;;;;;;;5069948;28;20049;-72
2021/06/05 01:32:57;;;;;;;0.20;0.20;;;;;;;;;;5070516;28;20562;-72
2021/06/05 01:35:23;;;;;;;0.17;0.13;;;;;;;;;;5071293;28;20032;-72
2021/06/05 01:37:49;;;;;;;0.20;0.20;;;;;;;;;;5070456;28;20067;-71
2021/06/05 01:40:16;;;;;;;0.22;0.22;;;;;;;;;;5070754;28;20041;-72
2021/06/05 01:42:44;;;;;;;0.30;0.30;;;;;;;;;;5071026;28;20131;-72
2021/06/05 01:45:16;;;;;;;0.00;0.00;;;;;;;;;;5070516;28;20054;-72
2021/06/05 01:47:42;;;;;;;0.22;0.22;;;;;;;;;;5070976;28;20045;-72
2021/06/05 01:50:09;;;;;;;0.00;0.00;;;;;;;;;;5070226;28;20159;-72
2021/06/05 01:52:36;;;;;;;0.08;0.08;;;;;;;;;;5070961;28;20067;-72
2021/06/05 01:55:06;;;;;;;0.10;0.10;;;;;;;;;;5051975;28;20051;-72
2021/06/05 01:57:33;;;;;;;0.00;0.00;;;;;;;;;;5070680;28;20055;-72
2021/06/05 01:59:59;;;;;;;0.52;0.20;;;;;;;;;;5069900;28;20122;-72
2021/06/05 02:02:25;;;;;;;0.20;0.20;;;;;;;;;;5070490;28;20375;-72
2021/06/05 02:04:51;;;;;;;0.20;0.20;;;;;;;;;;5069559;28;20586;-72
2021/06/05 02:07:18;;;;;;;0.10;0.10;;;;;;;;;;5070046;28;20534;-72
2021/06/05 02:09:44;;;;;;;0.10;0.10;;;;;;;;;;5070248;28;20056;-72
2021/06/05 02:12:16;;;;;;;0.20;0.10;;;;;;;;;;5069705;28;20056;-72
2021/06/05 02:14:44;;;;;;;0.20;0.20;;;;;;;;;;5070249;28;20048;-72
2021/06/05 02:17:12;;;;;;;0.20;0.20;;;;;;;;;;5069475;28;20430;-72
2021/06/05 02:19:43;;;;;;;0.10;0.10;;;;;;;;;;5069871;28;20495;-72
2021/06/05 02:22:13;;;;;;;0.35;0.10;;;;;;;;;;5069471;28;20048;-71
2021/06/05 02:24:43;;;;;;;0.10;0.10;;;;;;;;;;5070032;28;20052;-72
2021/06/05 02:27:10;;;;;;;0.10;0.10;;;;;;;;;;5069211;28;20081;-72
2021/06/05 02:29:39;;;;;;;0.10;0.10;;;;;;;;;;5069678;28;20041;-72
2021/06/05 02:32:06;;;;;;;0.10;0.10;;;;;;;;;;5069320;28;20525;-71
2021/06/05 02:34:32;;;;;;;0.20;0.10;;;;;;;;;;5069734;28;20060;-71
2021/06/05 02:37:00;;;;;;;0.10;0.10;;;;;;;;;;5069251;28;20052;-72
2021/06/05 02:39:27;;;;;;;0.20;0.20;;;;;;;;;;5069822;28;20087;-72
2021/06/05 02:41:54;;;;;;;0.10;0.10;;;;;;;;;;5069162;28;20047;-72
2021/06/05 02:44:24;;;;;;;0.10;0.10;;;;;;;;;;5070444;28;20094;-72
2021/06/05 02:46:50;;;;;;;0.20;0.20;;;;;;;;;;5069522;28;20045;-72
2021/06/05 02:49:25;;;;;;;0.20;0.20;;;;;;;;;;5069562;28;20048;-72
2021/06/05 02:51:55;;;;;;;0.10;0.10;;;;;;;;;;5068097;28;20052;-72
2021/06/05 02:54:22;;;;;;;0.10;0.10;;;;;;;;;;5068778;28;20048;-72
2021/06/05 02:56:48;;;;;;;0.10;0.10;;;;;;;;;;5067436;28;20387;-72
2021/06/05 02:59:14;;;;;;;2.05;0.15;;;;;;;;;;5068938;28;20059;-72
2021/06/05 03:01:41;;;;;;;0.10;0.10;;;;;;;;;;5069683;28;20403;-72
2021/06/05 03:04:07;;;;;;;0.10;0.10;;;;;;;;;;5068824;28;20549;-72
2021/06/05 03:06:33;;;;;;;0.05;0.05;;;;;;;;;;5069249;28;20045;-72
2021/06/05 03:08:59;;;;;;;0.10;0.10;;;;;;;;;;5068318;28;20068;-72
2021/06/05 03:11:26;;;;;;;0.30;0.30;;;;;;;;;;5069752;28;20044;-72
2021/06/05 03:13:53;;;;;;;0.03;0.03;;;;;;;;;;5068927;28;20056;-72
2021/06/05 03:16:19;;;;;;;0.68;0.20;;;;;;;;;;5069578;28;20032;-72
2021/06/05 03:18:46;;;;;;;0.10;0.10;;;;;;;;;;5069008;28;20053;-72
2021/06/05 03:21:18;;;;;;;0.10;0.10;;;;;;;;;;5068984;28;20057;-72
2021/06/05 03:23:45;;;;;;;0.20;0.20;;;;;;;;;;5069340;28;20531;-72
2021/06/05 03:26:12;;;;;;;0.38;0.17;;;;;;;;;;5068739;28;20052;-72
2021/06/05 03:28:38;;;;;;;0.10;0.10;;;;;;;;;;5069483;28;20044;-72
2021/06/05 03:31:05;;;;;;;0.10;0.10;;;;;;;;;;5068560;28;20123;-72
2021/06/05 03:33:32;;;;;;;0.00;0.00;;;;;;;;;;5069507;28;20127;-72
2021/06/05 03:35:58;;;;;;;0.50;0.10;;;;;;;;;;5068291;28;20094;-72
2021/06/05 03:38:25;;;;;;;0.10;0.10;;;;;;;;;;5069093;28;20090;-72
2021/06/05 03:40:52;;;;;;;0.10;0.10;;;;;;;;;;5072259;28;20571;-72
2021/06/05 03:43:19;;;;;;;0.00;0.00;;;;;;;;;;5073393;28;20051;-72
2021/06/05 03:45:45;;;;;;;0.40;0.13;;;;;;;;;;5073309;28;20194;-72
2021/06/05 03:48:11;;;;;;;0.10;0.10;;;;;;;;;;5072595;28;20177;-72
2021/06/05 03:50:45;;;;;;;0.10;0.10;;;;;;;;;;5073088;28;20053;-72
2021/06/05 03:53:11;;;;;;;0.10;0.10;;;;;;;;;;5072417;28;20123;-72
2021/06/05 03:55:38;;;;;;;0.10;0.10;;;;;;;;;;5073169;28;20052;-71
2021/06/05 03:58:05;;;;;;;0.10;0.10;;;;;;;;;;5071844;28;20110;-72
2021/06/05 04:00:33;;;;;;;0.10;0.10;;;;;;;;;;5072655;28;20040;-72
2021/06/05 04:02:59;;;;;;;0.10;0.10;;;;;;;;;;5072333;28;20105;-72
2021/06/05 04:05:26;;;;;;;0.28;0.28;;;;;;;;;;5072378;28;20048;-72
2021/06/05 04:07:52;;;;;;;0.10;0.10;;;;;;;;;;5072063;28;20527;-72
2021/06/05 04:10:22;;;;;;;0.10;0.10;;;;;;;;;;5072474;28;20056;-72
2021/06/05 04:12:48;;;;;;;0.10;0.10;;;;;;;;;;5072439;28;20068;-72
2021/06/05 04:15:15;;;;;;;0.15;0.15;;;;;;;;;;5072326;28;20032;-72
2021/06/05 04:17:41;;;;;;;0.10;0.10;;;;;;;;;;5072640;28;20075;-72
2021/06/05 04:20:10;;;;;;;0.35;0.35;;;;;;;;;;5071652;28;20060;-72
2021/06/05 04:22:36;;;;;;;0.10;0.10;;;;;;;;;;5072539;28;20127;-72
2021/06/05 04:25:03;;;;;;;0.40;0.40;;;;;;;;;;5071878;28;20040;-72
2021/06/05 04:27:29;;;;;;;0.10;0.10;;;;;;;;;;5072298;28;20075;-72
2021/06/05 04:29:55;;;;;;;0.10;0.10;;;;;;;;;;5071569;28;20051;-72
2021/06/05 04:32:21;;;;;;;0.13;0.13;;;;;;;;;;5071999;28;20181;-72
2021/06/05 04:34:47;;;;;;;0.00;0.00;;;;;;;;;;5071967;28;20143;-72
2021/06/05 04:37:14;;;;;;;0.10;0.10;;;;;;;;;;5071791;28;20123;-72
2021/06/05 04:39:40;;;;;;;0.10;0.10;;;;;;;;;;5071845;28;20576;-72
2021/06/05 04:42:07;;;;;;;0.10;0.10;;;;;;;;;;5071847;28;20118;-72
2021/06/05 04:44:33;;;;;;;1.50;0.20;;;;;;;;;;5072215;28;20601;-72
2021/06/05 04:46:59;;;;;;;0.10;0.10;;;;;;;;;;5071627;28;20486;-72
2021/06/05 04:49:25;;;;;;;0.10;0.10;;;;;;;;;;5071680;28;20467;-72
2021/06/05 04:51:51;;;;;;;0.22;0.13;;;;;;;;;;5070535;28;20102;-72
2021/06/05 04:54:17;;;;;;;0.10;0.10;;;;;;;;;;5071985;28;20044;-72
2021/06/05 04:56:45;;;;;;;0.10;0.10;;;;;;;;;;5071977;28;20059;-72
2021/06/05 04:59:13;;;;;;;0.10;0.10;;;;;;;;;;5070935;28;20064;-72
2021/06/05 05:01:39;;;;;;;0.10;0.10;;;;;;;;;;5071613;28;20591;-72
2021/06/05 05:04:06;;;;;;;0.10;0.10;;;;;;;;;;5071005;28;20140;-72
2021/06/05 05:06:32;;;;;;;0.20;0.20;;;;;;;;;;5071133;28;20480;-72
2021/06/05 05:08:58;;;;;;;0.03;0.03;;;;;;;;;;5070709;28;20047;-72
2021/06/05 05:11:24;;;;;;;0.10;0.10;;;;;;;;;;5071628;28;20051;-72
2021/06/05 05:13:50;;;;;;;0.00;0.00;;;;;;;;;;5071583;28;20052;-72
2021/06/05 05:16:17;;;;;;;0.10;0.10;;;;;;;;;;5071616;28;20059;-72
2021/06/05 05:18:46;;;;;;;0.10;0.10;;;;;;;;;;5071304;28;20083;-72
2021/06/05 05:21:13;;;;;;;0.00;0.00;;;;;;;;;;5071264;28;20059;-72
2021/06/05 05:23:39;;;;;;;0.10;0.10;;;;;;;;;;5071504;28;20044;-72
2021/06/05 05:26:07;;;;;;;0.10;0.10;;;;;;;;;;5070638;28;20052;-72
2021/06/05 05:28:33;;;;;;;0.10;0.10;;;;;;;;;;5070642;28;20044;-72
2021/06/05 05:31:01;;;;;;;0.08;0.08;;;;;;;;;;5070587;28;20074;-72
2021/06/05 05:33:27;;;;;;;0.10;0.10;;;;;;;;;;5071156;28;20503;-72
2021/06/05 05:35:55;;;;;;;0.10;0.10;;;;;;;;;;5070097;28;20040;-72
2021/06/05 05:38:21;;;;;;;0.10;0.10;;;;;;;;;;5070806;28;20492;-72
2021/06/05 05:40:47;;;;;;;0.03;0.03;;;;;;;;;;5070848;28;20407;-72
2021/06/05 05:43:13;;;;;;;0.10;0.10;;;;;;;;;;5070700;28;20048;-72
2021/06/05 05:45:40;;;;;;;0.10;0.10;;;;;;;;;;5071023;28;20416;-72
2021/06/05 05:48:07;;;;;;;0.10;0.10;;;;;;;;;;5070171;28;20097;-72
2021/06/05 05:50:34;;;;;;;0.10;0.10;;;;;;;;;;5070773;28;20052;-72
2021/06/05 05:53:01;;;;;;;0.30;0.20;;;;;;;;;;5070133;28;20044;-72
2021/06/05 05:55:27;;;;;;;0.10;0.10;;;;;;;;;;5070586;28;20087;-72
2021/06/05 05:57:53;;;;;;;0.00;0.00;;;;;;;;;;5070131;28;20040;-72
2021/06/05 06:00:22;;;;;;;0.40;0.10;;;;;;;;;;5070756;28;20094;-72
2021/06/05 06:02:48;;;;;;;0.10;0.10;;;;;;;;;;5070140;28;20056;-72
2021/06/05 06:05:14;;;;;;;0.10;0.10;;;;;;;;;;5069869;28;20422;-72
2021/06/05 06:07:41;;;;;;;1.75;0.20;;;;;;;;;;5070616;28;20086;-72
2021/06/05 06:10:09;;;;;;;0.30;0.10;;;;;;;;;;5069733;28;20092;-72
2021/06/05 06:12:35;;;;;;;0.10;0.10;;;;;;;;;;5070216;28;20534;-72
2021/06/05 06:15:01;;;;;;;0.05;0.05;;;;;;;;;;5070100;28;20049;-72
2021/06/05 06:17:27;;;;;;;0.10;0.10;;;;;;;;;;5070355;28;20080;-72
2021/06/05 06:19:53;;;;;;;0.93;0.10;;;;;;;;;;5051587;28;20404;-72
2021/06/05 06:22:19;;;;;;;0.10;0.10;;;;;;;;;;5070060;28;20072;-72
2021/06/05 06:24:45;;;;;;;0.00;0.00;;;;;;;;;;5070232;28;20515;-72
2021/06/05 06:27:11;;;;;;;0.00;0.00;;;;;;;;;;5069549;28;20056;-72
2021/06/05 06:29:39;;;;;;;0.10;0.10;;;;;;;;;;5069526;28;20182;-72
2021/06/05 06:32:06;;;;;;;0.25;0.20;;;;;;;;;;5069073;28;20072;-72
2021/06/05 06:34:32;;;;;;;0.10;0.10;;;;;;;;;;5069861;28;20068;-72
2021/06/05 06:37:03;;;;;;;0.10;0.10;;;;;;;;;;5068936;28;20083;-72
2021/06/05 06:39:30;;;;;;;0.10;0.10;;;;;;;;;;5069912;28;20129;-72
2021/06/05 06:41:56;;;;;;;0.40;0.40;;;;;;;;;;5069271;28;20118;-72
2021/06/05 06:44:22;;;;;;;0.30;0.30;;;;;;;;;;5069800;28;20052;-72
2021/06/05 06:46:49;;;;;;;0.43;0.13;;;;;;;;;;5069586;28;20127;-72
2021/06/05 06:49:17;;;;;;;0.10;0.10;;;;;;;;;;5069354;28;20044;-72
2021/06/05 06:51:44;;;;;;;0.10;0.10;;;;;;;;;;5070000;28;20060;-72
2021/06/05 06:54:10;;;;;;;0.20;0.20;;;;;;;;;;5069237;28;20202;-72
2021/06/05 06:56:37;;;;;;;0.10;0.10;;;;;;;;;;5069940;28;20052;-72
2021/06/05 06:59:04;;;;;;;0.13;0.13;;;;;;;;;;5069172;28;20037;-72
2021/06/05 07:01:30;;;;;;;0.17;0.17;;;;;;;;;;5069813;28;20045;-72
2021/06/05 07:03:57;;;;;;;0.13;0.10;;;;;;;;;;5069240;28;20049;-72
2021/06/05 07:06:25;;;;;;;0.30;0.10;;;;;;;;;;5069175;28;20510;-72
2021/06/05 07:08:52;;;;;;;0.20;0.20;;;;;;;;;;5068879;28;20552;-72
2021/06/05 07:11:20;;;;;;;0.63;0.22;;;;;;;;;;5069781;28;20056;-72
2021/06/05 07:13:46;;;;;;;0.43;0.43;;;;;;;;;;5068701;28;20055;-72
2021/06/05 07:16:12;;;;;;;0.25;0.25;;;;;;;;;;5068971;28;20135;-71
2021/06/05 07:18:39;;;;;;;0.20;0.20;;;;;;;;;;5069453;28;20102;-72
2021/06/05 07:21:06;;;;;;;0.10;0.10;;;;;;;;;;5068923;28;20084;-72
2021/06/05 07:23:33;;;;;;;0.10;0.10;;;;;;;;;;5069615;28;20075;-72
2021/06/05 07:26:00;;;;;;;0.10;0.10;;;;;;;;;;5069066;28;20054;-72
2021/06/05 07:28:31;;;;;;;0.30;0.30;;;;;;;;;;5069335;28;20048;-72
2021/06/05 07:30:58;;;;;;;0.52;0.30;;;;;;;;;;5067475;28;20048;-73
2021/06/05 07:33:24;;;;;;;0.45;0.20;;;;;;;;;;5069746;28;20446;-72
2021/06/05 07:35:51;;;;;;;0.20;0.20;;;;;;;;;;5050665;28;20060;-72
2021/06/05 07:38:17;;;;;;;0.30;0.10;;;;;;;;;;5069003;28;20215;-72
2021/06/05 07:40:45;;;;;;;0.20;0.15;;;;;;;;;;5069342;28;20045;-72
2021/06/05 07:43:12;;;;;;;0.15;0.15;;;;;;;;;;5068742;28;20060;-72
2021/06/05 07:45:38;;;;;;;0.28;0.20;;;;;;;;;;5069363;28;20052;-72
2021/06/05 07:48:05;;;;;;;0.10;0.10;;;;;;;;;;5068385;28;20068;-72
2021/06/05 07:50:31;;;;;;;0.20;0.20;;;;;;;;;;5069154;28;20044;-72
2021/06/05 07:52:57;;;;;;;0.20;0.20;;;;;;;;;;5068431;28;20052;-71
2021/06/05 07:55:23;;;;;;;0.20;0.20;;;;;;;;;;5069145;28;20048;-72
2021/06/05 07:57:49;;;;;;;1.50;0.40;;;;;;;;;;5068680;28;20080;-72
2021/06/05 08:00:18;;;;;;;0.20;0.20;;;;;;;;;;5068097;28;20056;-72
2021/06/05 08:02:45;;;;;;;0.10;0.10;;;;;;;;;;5068563;28;20570;-72
2021/06/05 08:05:11;;;;;;;0.30;0.30;;;;;;;;;;5067463;28;20052;-72
2021/06/05 08:07:37;;;;;;;0.10;0.10;;;;;;;;;;5068741;28;20523;-72
2021/06/05 08:10:05;;;;;;;0.30;0.17;;;;;;;;;;5067818;28;20048;-72
2021/06/05 08:12:31;;;;;;;0.57;0.57;;;;;;;;;;5068812;28;20041;-72
2021/06/05 08:14:57;;;;;;;0.30;0.30;;;;;;;;;;5067840;28;20051;-73
2021/06/05 08:17:23;;;;;;;0.17;0.17;;;;;;;;;;5050504;28;20161;-73
2021/06/05 08:19:49;;;;;;;0.25;0.25;;;;;;;;;;5068181;28;20052;-72
2021/06/05 08:22:15;;;;;;;0.45;0.30;;;;;;;;;;5068532;28;20481;-72
2021/06/05 08:24:41;;;;;;;0.30;0.30;;;;;;;;;;5068644;28;20117;-72
2021/06/05 08:27:08;;;;;;;0.55;0.55;;;;;;;;;;5071681;28;20040;-73
2021/06/05 08:29:34;;;;;;;0.35;0.30;;;;;;;;;;5071958;28;20598;-72
2021/06/05 08:32:00;;;;;;;0.30;0.30;;;;;;;;;;5071277;28;20445;-72
2021/06/05 08:34:26;;;;;;;0.30;0.30;;;;;;;;;;5071531;28;20063;-72
2021/06/05 08:36:53;;;;;;;0.50;0.38;;;;;;;;;;5071471;28;20059;-72
2021/06/05 08:39:20;;;;;;;0.22;0.22;;;;;;;;;;5071502;28;20127;-72
2021/06/05 08:41:50;;;;;;;0.38;0.30;;;;;;;;;;5071763;28;20398;-72
2021/06/05 08:44:21;;;;;;;0.40;0.40;;;;;;;;;;5071891;28;20443;-72
2021/06/05 08:46:51;;;;;;;0.55;0.45;;;;;;;;;;5071816;28;20053;-72
2021/06/05 08:49:19;;;;;;;0.22;0.22;;;;;;;;;;5071495;28;20056;-72
2021/06/05 08:51:58;;;;;;;0.25;0.25;;;;;;;;;;5071887;28;20076;-72
2021/06/05 08:54:44;;;;;;;0.20;0.20;;;;;;;;;;5070806;28;20056;-72
2021/06/05 08:57:30;;;;;;;0.40;0.40;;;;;;;;;;5070220;28;20148;-72
2021/06/05 08:59:59;;;;;;;0.20;0.20;;;;;;;;;;5070133;28;20056;-72
2021/06/05 09:02:26;;;;;;;0.20;0.20;;;;;;;;;;5071744;28;20564;-72
2021/06/05 09:04:53;;;;;;;0.80;0.40;;;;;;;;;;5071123;28;20100;-72
2021/06/05 09:07:20;;;;;;;0.40;0.40;;;;;;;;;;5071676;28;20048;-72
2021/06/05 09:09:48;;;;;;;0.43;0.43;;;;;;;;;;5071369;28;20503;-72
2021/06/05 09:12:14;;;;;;;0.40;0.40;;;;;;;;;;5071355;28;20247;-72
2021/06/05 09:14:41;;;;;;;0.20;0.20;;;;;;;;;;5071665;28;20067;-72
2021/06/05 09:17:21;;;;;;;0.35;0.28;;;;;;;;;;5070756;28;20186;-72
2021/06/05 09:20:07;;;;;;;0.38;0.38;;;;;;;;;;5070616;28;20056;-72
2021/06/05 09:22:36;;;;;;;0.73;0.40;;;;;;;;;;5070797;28;20036;-72
2021/06/05 09:25:21;;;;;;;0.40;0.40;;;;;;;;;;5070587;28;20059;-72
2021/06/05 09:27:48;;;;;;;0.30;0.30;;;;;;;;;;5070585;28;20052;-72
2021/06/05 09:30:31;;;;;;;0.40;0.40;;;;;;;;;;5070637;28;20045;-72
2021/06/05 09:33:00;;;;;;;0.40;0.40;;;;;;;;;;5070607;28;20121;-72
2021/06/05 09:35:37;;;;;;;0.60;0.60;;;;;;;;;;5070683;28;20124;-72
2021/06/05 09:38:24;;;;;;;0.47;0.40;;;;;;;;;;5069800;28;20047;-72
2021/06/05 09:41:06;;;;;;;0.30;0.30;;;;;;;;;;5070921;28;20510;-72
2021/06/05 09:43:33;;;;;;;0.10;0.10;;;;;;;;;;5070905;28;20039;-72
2021/06/05 09:46:11;;;;;;;0.30;0.30;;;;;;;;;;5070255;28;20044;-72
2021/06/05 09:48:43;;;;;;;0.32;0.32;;;;;;;;;;5070464;28;20066;-72
2021/06/05 09:51:29;;;;;;;0.38;0.38;;;;;;;;;;5070230;28;20044;-72
2021/06/05 09:54:00;;;;;;;0.38;0.38;;;;;;;;;;5070182;28;20449;-72
2021/06/05 09:56:28;;;;;;;0.30;0.30;;;;;;;;;;5070870;28;20059;-72
2021/06/05 09:59:16;;;;;;;0.52;0.38;;;;;;;;;;5070064;28;20033;-72
2021/06/05 10:02:02;;;;;;;0.52;0.52;;;;;;;;;;5071285;28;20067;-72
2021/06/05 10:04:30;;;;;;;0.28;0.28;;;;;;;;;;5070749;28;20045;-72
2021/06/05 10:06:57;;;;;;;0.20;0.20;;;;;;;;;;5070208;28;20052;-72
2021/06/05 10:09:31;;;;;;;0.50;0.43;;;;;;;;;;5070232;28;20121;-72
2021/06/05 10:12:00;;;;;;;0.20;0.20;;;;;;;;;;5069872;28;20132;-72
2021/06/05 10:14:43;;;;;;;0.28;0.28;;;;;;;;;;5070213;28;20054;-72
2021/06/05 10:17:22;;;;;;;0.40;0.40;;;;;;;;;;5069826;28;20060;-72
2021/06/05 10:19:58;;;;;;;0.40;0.40;;;;;;;;;;5070045;28;20032;-72
2021/06/05 10:22:25;;;;;;;0.25;0.25;;;;;;;;;;5070520;28;20072;-72
2021/06/05 10:24:54;;;;;;;1.30;0.20;;;;;;;;;;5069886;28;20474;-72
2021/06/05 10:27:23;;;;;;;0.65;0.65;;;;;;;;;;5070076;28;20051;-72
2021/06/05 10:29:51;;;;;;;0.25;0.25;;;;;;;;;;5070057;28;20052;-72
2021/06/05 10:32:20;;;;;;;1.75;0.50;;;;;;;;;;5068252;28;20120;-72
2021/06/05 10:34:49;;;;;;;0.30;0.30;;;;;;;;;;5069689;28;20083;-72
2021/06/05 10:37:17;;;;;;;0.20;0.20;;;;;;;;;;5069982;28;20128;-72
2021/06/05 10:39:44;;;;;;;0.30;0.30;;;;;;;;;;5069972;28;20055;-72
2021/06/05 10:42:22;;;;;;;0.55;0.55;;;;;;;;;;5069157;28;20574;-72
2021/06/05 10:44:49;;;;;;;0.60;0.30;;;;;;;;;;5067946;28;20529;-72
2021/06/05 10:47:20;;;;;;;0.30;0.30;;;;;;;;;;5069551;28;20056;-72
2021/06/05 10:49:57;;;;;;;0.40;0.40;;;;;;;;;;5068901;28;20394;-72
2021/06/05 10:52:30;;;;;;;0.30;0.30;;;;;;;;;;5068462;28;20044;-72
2021/06/05 10:55:00;;;;;;;0.40;0.40;;;;;;;;;;5068525;28;20048;-72
2021/06/05 10:57:30;;;;;;;0.55;0.55;;;;;;;;;;5069728;28;20518;-72
2021/06/05 10:59:58;;;;;;;0.30;0.30;;;;;;;;;;5069044;28;20529;-72
2021/06/05 11:02:44;;;;;;;0.40;0.40;;;;;;;;;;5069932;28;20529;-72
2021/06/05 11:05:32;;;;;;;0.40;0.40;;;;;;;;;;5067431;28;20048;-72
2021/06/05 11:08:19;;;;;;;0.57;0.57;;;;;;;;;;5068884;28;20044;-72
2021/06/05 11:10:51;;;;;;;0.30;0.30;;;;;;;;;;5068912;28;20072;-72
2021/06/05 11:13:37;;;;;;;0.20;0.20;;;;;;;;;;5069368;28;20101;-72
2021/06/05 11:16:08;;;;;;;1.33;0.40;;;;;;;;;;5053390;28;20056;-72
2021/06/05 11:18:35;;;;;;;1.58;0.30;;;;;;;;;;5069115;28;20190;-72
2021/06/05 11:21:21;;;;;;;0.20;0.20;;;;;;;;;;5068748;28;20040;-72
2021/06/05 11:24:07;;;;;;;0.20;0.20;;;;;;;;;;5068535;28;20059;-72
2021/06/05 11:26:42;;;;;;;0.38;0.32;;;;;;;;;;5054052;28;20056;-72
2021/06/05 11:29:28;;;;;;;0.35;0.35;;;;;;;;;;5068537;28;20044;-72
2021/06/05 11:31:58;;;;;;;0.50;0.50;;;;;;;;;;5034244;28;20053;-72
2021/06/05 11:34:44;;;;;;;0.20;0.20;;;;;;;;;;5049341;28;20052;-72
2021/06/05 11:37:30;;;;;;;0.38;0.38;;;;;;;;;;5048739;28;20056;-72
2021/06/05 11:39:58;;;;;;;1.00;0.52;;;;;;;;;;5048585;28;20580;-72
2021/06/05 11:42:44;;;;;;;0.20;0.20;;;;;;;;;;5049296;28;20040;-72
2021/06/05 11:45:30;;;;;;;0.20;0.20;;;;;;;;;;5047892;28;20475;-72
2021/06/05 11:47:56;;;;;;;0.40;0.35;;;;;;;;;;5047466;28;20053;-72
2021/06/05 11:50:27;;;;;;;1.02;0.68;;;;;;;;;;5049213;28;20415;-72
2021/06/05 11:52:55;;;;;;;0.38;0.38;;;;;;;;;;5048935;28;20059;-72
2021/06/05 11:55:41;;;;;;;0.40;0.40;;;;;;;;;;5049522;28;20525;-71
2021/06/05 11:58:27;;;;;;;0.20;0.20;;;;;;;;;;5048204;28;20057;-72
2021/06/05 12:01:06;;;;;;;0.40;0.40;;;;;;;;;;5049374;28;20052;-72
2021/06/05 12:03:40;;;;;;;0.50;0.50;;;;;;;;;;5053072;28;20052;-72
2021/06/05 12:06:19;;;;;;;0.20;0.20;;;;;;;;;;5052035;28;20053;-72
2021/06/05 12:08:46;;;;;;;0.30;0.30;;;;;;;;;;5053126;28;20049;-72
2021/06/05 12:11:17;;;;;;;0.68;0.30;;;;;;;;;;5052789;28;20493;-72
2021/06/05 12:13:44;;;;;;;0.52;0.30;;;;;;;;;;5052773;28;20057;-72
2021/06/05 12:16:15;;;;;;;0.40;0.40;;;;;;;;;;5052089;28;20053;-72
2021/06/05 12:18:44;;;;;;;0.22;0.22;;;;;;;;;;5052480;28;20487;-72
2021/06/05 12:21:28;;;;;;;0.43;0.30;;;;;;;;;;5051900;28;20057;-72
2021/06/05 12:23:54;;;;;;;0.32;0.32;;;;;;;;;;5051726;28;20045;-72
2021/06/05 12:26:22;;;;;;;0.25;0.25;;;;;;;;;;5052732;28;20491;-72
2021/06/05 12:28:50;;;;;;;0.38;0.38;;;;;;;;;;5051961;28;20060;-72
2021/06/05 12:31:31;;;;;;;0.40;0.40;;;;;;;;;;5069739;28;20563;-72
2021/06/05 12:34:05;;;;;;;0.63;0.50;;;;;;;;;;5071152;28;20051;-72
2021/06/05 12:36:42;;;;;;;0.25;0.25;;;;;;;;;;5072322;28;20515;-72
2021/06/05 12:39:17;;;;;;;0.40;0.40;;;;;;;;;;5070093;28;20131;-71
2021/06/05 12:41:44;;;;;;;0.98;0.85;;;;;;;;;;5072041;28;20139;-72
2021/06/05 12:44:15;;;;;;;0.55;0.55;;;;;;;;;;5071779;28;20161;-72
2021/06/05 12:46:41;;;;;;;0.30;0.30;;;;;;;;;;5072284;28;20147;-72
2021/06/05 12:49:08;;;;;;;0.30;0.30;;;;;;;;;;5071137;28;20059;-72
2021/06/05 12:51:37;;;;;;;0.20;0.20;;;;;;;;;;5070193;28;20111;-72
2021/06/05 12:54:05;;;;;;;0.28;0.28;;;;;;;;;;5071282;28;20098;-72
2021/06/05 12:56:36;;;;;;;0.50;0.50;;;;;;;;;;5071917;28;20053;-72
2021/06/05 12:59:03;;;;;;;1.13;1.05;;;;;;;;;;5070848;28;20094;-72
2021/06/05 13:01:37;;;;;;;0.40;0.40;;;;;;;;;;5071848;28;20518;-72
2021/06/05 13:04:04;;;;;;;0.35;0.35;;;;;;;;;;5071154;28;20037;-72
2021/06/05 13:06:32;;;;;;;0.50;0.50;;;;;;;;;;5071392;28;20106;-72
2021/06/05 13:09:21;;;;;;;0.73;0.60;;;;;;;;;;5070949;28;20507;-72
2021/06/05 13:11:50;;;;;;;0.65;0.40;;;;;;;;;;5070008;28;20087;-72
2021/06/05 13:14:18;;;;;;;1.10;1.00;;;;;;;;;;5071326;28;20037;-72
2021/06/05 13:16:44;;;;;;;0.70;0.70;;;;;;;;;;5071428;28;20584;-72
2021/06/05 13:19:22;;;;;;;0.50;0.50;;;;;;;;;;5070422;28;20051;-72
2021/06/05 13:22:02;;;;;;;0.22;0.22;;;;;;;;;;5070435;28;20591;-72
2021/06/05 13:24:28;;;;;;;0.77;0.73;;;;;;;;;;5069729;28;20055;-72
2021/06/05 13:27:13;;;;;;;0.43;0.43;;;;;;;;;;5070900;28;20087;-72
2021/06/05 13:29:49;;;;;;;0.40;0.40;;;;;;;;;;5071106;28;20415;-72
2021/06/05 13:32:35;;;;;;;0.55;0.52;;;;;;;;;;5071054;28;20433;-72
2021/06/05 13:35:05;;;;;;;1.98;0.73;;;;;;;;;;5055385;28;20052;-72
2021/06/05 13:37:36;;;;;;;0.50;0.47;;;;;;;;;;5071315;28;20049;-72
2021/06/05 13:40:05;;;;;;;0.38;0.38;;;;;;;;;;5070461;28;20056;-72
2021/06/05 13:42:33;;;;;;;0.30;0.30;;;;;;;;;;5071152;28;20049;-72
2021/06/05 13:44:59;;;;;;;0.30;0.30;;;;;;;;;;5070373;28;20056;-72
2021/06/05 13:47:25;;;;;;;1.13;0.35;;;;;;;;;;5070857;28;20052;-72
2021/06/05 13:49:52;;;;;;;0.40;0.40;;;;;;;;;;5070049;28;20052;-72
2021/06/05 13:52:29;;;;;;;0.50;0.50;;;;;;;;;;5070913;28;20514;-72
2021/06/05 13:55:00;;;;;;;0.40;0.40;;;;;;;;;;5070151;28;20518;-72
2021/06/05 13:57:27;;;;;;;0.55;0.55;;;;;;;;;;5070719;28;20102;-72
2021/06/05 13:59:53;;;;;;;0.40;0.40;;;;;;;;;;5069788;28;20059;-72
2021/06/05 14:02:19;;;;;;;0.63;0.63;;;;;;;;;;5070816;28;20056;-72
2021/06/05 14:04:49;;;;;;;0.40;0.40;;;;;;;;;;5070502;28;20045;-72
2021/06/05 14:07:16;;;;;;;0.52;0.52;;;;;;;;;;5068384;28;20087;-72
2021/06/05 14:09:45;;;;;;;0.50;0.50;;;;;;;;;;5070099;28;20052;-72
2021/06/05 14:12:12;;;;;;;0.52;0.43;;;;;;;;;;5070425;28;20080;-72
2021/06/05 14:14:39;;;;;;;0.50;0.50;;;;;;;;;;5070375;28;20097;-72
2021/06/05 14:17:05;;;;;;;0.45;0.45;;;;;;;;;;5069854;28;20218;-72
2021/06/05 14:19:31;;;;;;;0.55;0.55;;;;;;;;;;5070136;28;20052;-72
2021/06/05 14:21:57;;;;;;;0.50;0.50;;;;;;;;;;5069650;28;20040;-72
2021/06/05 14:24:23;;;;;;;0.50;0.50;;;;;;;;;;5070239;28;20106;-72
2021/06/05 14:26:49;;;;;;;0.80;0.80;;;;;;;;;;5069771;28;20063;-72
2021/06/05 14:29:15;;;;;;;0.70;0.70;;;;;;;;;;5069524;28;20052;-72
2021/06/05 14:31:41;;;;;;;0.50;0.50;;;;;;;;;;5070144;28;20097;-72
2021/06/05 14:34:07;;;;;;;0.70;0.50;;;;;;;;;;5069413;28;20060;-72
2021/06/05 14:36:33;;;;;;;2.38;0.93;;;;;;;;;;5069889;28;20567;-72
2021/06/05 14:38:59;;;;;;;0.50;0.50;;;;;;;;;;5069215;28;20041;-72
2021/06/05 14:41:26;;;;;;;0.40;0.40;;;;;;;;;;5069819;28;20568;-72
2021/06/05 14:43:52;;;;;;;0.70;0.70;;;;;;;;;;5067927;28;20582;-72
2021/06/05 14:46:20;;;;;;;0.52;0.50;;;;;;;;;;5068473;28;20048;-72
2021/06/05 14:48:46;;;;;;;0.60;0.50;;;;;;;;;;5068269;28;20044;-72
2021/06/05 14:51:13;;;;;;;0.80;0.80;;;;;;;;;;5067941;28;20110;-72
2021/06/05 14:53:40;;;;;;;0.32;0.32;;;;;;;;;;5069614;28;20135;-72
2021/06/05 14:56:08;;;;;;;0.28;0.28;;;;;;;;;;5069066;28;20052;-72